sensor_id;sensor_type;location;lat;lon;timestamp;P1;durP1;ratioP1;P2;durP2;ratioP2
20399;SDS011;10359;53.596;22.520;2023-09-12T00:01:57;20.60;;;16.70;;
20399;SDS011;10359;53.596;22.520;2023-09-12T00:11:00;19.07;;;16.73;;
20399;SDS011;10359;53.596;22.520;2023-09-12T00:20:36;19.27;;;16.73;;
20399;SDS011;10359;53.596;22.520;2023-09-12T00:26:47;18.40;;;14.90;;
20399;SDS011;10359;53.596;22.520;2023-09-12T00:33:16;18.43;;;15.30;;
20399;SDS011;10359;53.596;22.520;2023-09-12T00:39:48;15.90;;;14.23;;
20399;SDS011;10359;53.596;22.520;2023-09-12T00:46:22;17.63;;;15.37;;
20399;SDS011;10359;53.596;22.520;2023-09-12T01:00:08;20.37;;;17.13;;
20399;SDS011;10359;53.596;22.520;2023-09-12T01:06:42;20.13;;;16.37;;
20399;SDS011;10359;53.596;22.520;2023-09-12T01:13:19;25.47;;;19.27;;
20399;SDS011;10359;53.596;22.520;2023-09-12T01:19:54;18.43;;;16.53;;
20399;SDS011;10359;53.596;22.520;2023-09-12T01:26:47;20.17;;;17.10;;
20399;SDS011;10359;53.596;22.520;2023-09-12T01:33:48;21.67;;;18.13;;
20399;SDS011;10359;53.596;22.520;2023-09-12T01:40:24;21.97;;;17.67;;
20399;SDS011;10359;53.596;22.520;2023-09-12T01:47:19;17.77;;;15.83;;
20399;SDS011;10359;53.596;22.520;2023-09-12T01:54:13;20.13;;;17.07;;
20399;SDS011;10359;53.596;22.520;2023-09-12T02:12:18;19.17;;;17.17;;
20399;SDS011;10359;53.596;22.520;2023-09-12T02:18:58;18.20;;;15.83;;
20399;SDS011;10359;53.596;22.520;2023-09-12T02:25:56;16.47;;;14.73;;
20399;SDS011;10359;53.596;22.520;2023-09-12T02:36:30;25.10;;;18.60;;
20399;SDS011;10359;53.596;22.520;2023-09-12T02:43:07;18.23;;;15.83;;
20399;SDS011;10359;53.596;22.520;2023-09-12T02:49:59;24.73;;;18.93;;
20399;SDS011;10359;53.596;22.520;2023-09-12T02:56:51;18.27;;;15.87;;
20399;SDS011;10359;53.596;22.520;2023-09-12T03:03:42;19.60;;;15.67;;
20399;SDS011;10359;53.596;22.520;2023-09-12T03:10:27;17.70;;;15.13;;
20399;SDS011;10359;53.596;22.520;2023-09-12T03:17:26;21.10;;;17.67;;
20399;SDS011;10359;53.596;22.520;2023-09-12T03:24:25;20.03;;;17.40;;
20399;SDS011;10359;53.596;22.520;2023-09-12T03:31:13;18.57;;;16.20;;
20399;SDS011;10359;53.596;22.520;2023-09-12T03:37:55;20.70;;;17.07;;
20399;SDS011;10359;53.596;22.520;2023-09-12T03:44:34;18.03;;;16.23;;
20399;SDS011;10359;53.596;22.520;2023-09-12T03:51:14;18.43;;;15.53;;
20399;SDS011;10359;53.596;22.520;2023-09-12T03:54:21;21.17;;;17.27;;
20399;SDS011;10359;53.596;22.520;2023-09-12T03:57:23;17.73;;;15.70;;
20399;SDS011;10359;53.596;22.520;2023-09-12T04:04:10;20.37;;;16.23;;
20399;SDS011;10359;53.596;22.520;2023-09-12T04:10:59;17.63;;;15.83;;
20399;SDS011;10359;53.596;22.520;2023-09-12T04:17:55;21.47;;;17.60;;
20399;SDS011;10359;53.596;22.520;2023-09-12T04:24:42;22.77;;;18.13;;
20399;SDS011;10359;53.596;22.520;2023-09-12T04:31:24;18.13;;;16.20;;
20399;SDS011;10359;53.596;22.520;2023-09-12T04:38:11;20.70;;;17.93;;
20399;SDS011;10359;53.596;22.520;2023-09-12T04:44:58;20.90;;;16.87;;
20399;SDS011;10359;53.596;22.520;2023-09-12T04:51:40;19.93;;;16.57;;
20399;SDS011;10359;53.596;22.520;2023-09-12T04:54:43;22.97;;;17.43;;
20399;SDS011;10359;53.596;22.520;2023-09-12T04:57:46;20.17;;;16.87;;
20399;SDS011;10359;53.596;22.520;2023-09-12T05:04:44;19.00;;;17.00;;
20399;SDS011;10359;53.596;22.520;2023-09-12T05:11:32;18.77;;;15.47;;
20399;SDS011;10359;53.596;22.520;2023-09-12T05:18:20;16.90;;;15.13;;
20399;SDS011;10359;53.596;22.520;2023-09-12T05:25:16;17.33;;;15.53;;
20399;SDS011;10359;53.596;22.520;2023-09-12T05:32:15;15.77;;;13.80;;
20399;SDS011;10359;53.596;22.520;2023-09-12T05:39:01;17.57;;;13.93;;
20399;SDS011;10359;53.596;22.520;2023-09-12T05:45:48;19.27;;;12.27;;
20399;SDS011;10359;53.596;22.520;2023-09-12T05:52:47;14.20;;;12.80;;
20399;SDS011;10359;53.596;22.520;2023-09-12T05:55:49;15.53;;;12.93;;
20399;SDS011;10359;53.596;22.520;2023-09-12T06:06:19;19.23;;;14.63;;
20399;SDS011;10359;53.596;22.520;2023-09-12T06:13:00;13.93;;;12.40;;
20399;SDS011;10359;53.596;22.520;2023-09-12T06:19:49;17.13;;;13.07;;
20399;SDS011;10359;53.596;22.520;2023-09-12T06:26:36;17.23;;;13.67;;
20399;SDS011;10359;53.596;22.520;2023-09-12T06:33:25;16.37;;;14.37;;
20399;SDS011;10359;53.596;22.520;2023-09-12T06:40:22;16.97;;;14.53;;
20399;SDS011;10359;53.596;22.520;2023-09-12T06:47:19;16.37;;;13.83;;
20399;SDS011;10359;53.596;22.520;2023-09-12T06:57:43;19.30;;;14.37;;
20399;SDS011;10359;53.596;22.520;2023-09-12T07:04:24;16.67;;;14.97;;
20399;SDS011;10359;53.596;22.520;2023-09-12T07:11:22;16.80;;;14.97;;
20399;SDS011;10359;53.596;22.520;2023-09-12T07:18:20;20.03;;;16.23;;
20399;SDS011;10359;53.596;22.520;2023-09-12T07:25:06;17.60;;;15.80;;
20399;SDS011;10359;53.596;22.520;2023-09-12T07:31:55;17.40;;;15.70;;
20399;SDS011;10359;53.596;22.520;2023-09-12T07:38:39;19.97;;;17.33;;
20399;SDS011;10359;53.596;22.520;2023-09-12T07:45:20;16.93;;;14.83;;
20399;SDS011;10359;53.596;22.520;2023-09-12T07:52:00;16.47;;;14.60;;
20399;SDS011;10359;53.596;22.520;2023-09-12T07:58:02;14.43;;;13.00;;
20399;SDS011;10359;53.596;22.520;2023-09-12T08:05:06;14.90;;;13.30;;
20399;SDS011;10359;53.596;22.520;2023-09-12T08:11:54;14.37;;;12.57;;
20399;SDS011;10359;53.596;22.520;2023-09-12T08:18:41;14.37;;;12.70;;
20399;SDS011;10359;53.596;22.520;2023-09-12T08:25:20;12.87;;;11.60;;
20399;SDS011;10359;53.596;22.520;2023-09-12T08:35:53;12.80;;;11.50;;
20399;SDS011;10359;53.596;22.520;2023-09-12T08:42:42;14.00;;;11.57;;
20399;SDS011;10359;53.596;22.520;2023-09-12T08:49:30;12.10;;;10.40;;
20399;SDS011;10359;53.596;22.520;2023-09-12T08:52:42;14.03;;;11.13;;
20399;SDS011;10359;53.596;22.520;2023-09-12T08:56:00;12.40;;;11.27;;
20399;SDS011;10359;53.596;22.520;2023-09-12T09:11:03;11.77;;;10.57;;
20399;SDS011;10359;53.596;22.520;2023-09-12T09:17:44;12.68;;;10.15;;
20399;SDS011;10359;53.596;22.520;2023-09-12T09:24:30;11.77;;;10.60;;
20399;SDS011;10359;53.596;22.520;2023-09-12T09:31:17;11.27;;;10.18;;
20399;SDS011;10359;53.596;22.520;2023-09-12T09:37:59;11.07;;;9.85;;
20399;SDS011;10359;53.596;22.520;2023-09-12T09:44:46;10.95;;;9.65;;
20399;SDS011;10359;53.596;22.520;2023-09-12T09:51:30;11.93;;;9.48;;
20399;SDS011;10359;53.596;22.520;2023-09-12T09:58:17;11.07;;;9.60;;
20399;SDS011;10359;53.596;22.520;2023-09-12T10:05:14;10.60;;;9.45;;
20399;SDS011;10359;53.596;22.520;2023-09-12T10:12:13;12.30;;;9.63;;
20399;SDS011;10359;53.596;22.520;2023-09-12T10:19:12;9.45;;;8.55;;
20399;SDS011;10359;53.596;22.520;2023-09-12T10:26:12;10.50;;;8.57;;
20399;SDS011;10359;53.596;22.520;2023-09-12T10:33:02;11.93;;;9.20;;
20399;SDS011;10359;53.596;22.520;2023-09-12T10:39:43;12.52;;;9.50;;
20399;SDS011;10359;53.596;22.520;2023-09-12T10:46:25;11.93;;;9.57;;
20399;SDS011;10359;53.596;22.520;2023-09-12T11:00:53;11.98;;;10.15;;
20399;SDS011;10359;53.596;22.520;2023-09-12T11:08:07;12.07;;;10.82;;
20399;SDS011;10359;53.596;22.520;2023-09-12T11:15:03;11.40;;;10.30;;
20399;SDS011;10359;53.596;22.520;2023-09-12T11:21:56;11.32;;;10.23;;
20399;SDS011;10359;53.596;22.520;2023-09-12T11:28:37;11.45;;;10.45;;
20399;SDS011;10359;53.596;22.520;2023-09-12T11:38:31;12.00;;;11.00;;
20399;SDS011;10359;53.596;22.520;2023-09-12T11:45:18;11.75;;;10.55;;
20399;SDS011;10359;53.596;22.520;2023-09-12T11:51:59;11.25;;;9.85;;
20399;SDS011;10359;53.596;22.520;2023-09-12T11:58:41;12.50;;;11.27;;
20399;SDS011;10359;53.596;22.520;2023-09-12T12:05:29;11.07;;;9.95;;
20399;SDS011;10359;53.596;22.520;2023-09-12T12:12:09;11.95;;;9.98;;
20399;SDS011;10359;53.596;22.520;2023-09-12T12:19:10;11.10;;;9.90;;
20399;SDS011;10359;53.596;22.520;2023-09-12T12:25:57;11.60;;;9.82;;
20399;SDS011;10359;53.596;22.520;2023-09-12T12:32:48;12.20;;;9.90;;
20399;SDS011;10359;53.596;22.520;2023-09-12T12:39:55;13.45;;;10.63;;
20399;SDS011;10359;53.596;22.520;2023-09-12T12:46:54;13.95;;;9.98;;
20399;SDS011;10359;53.596;22.520;2023-09-12T12:53:51;12.55;;;9.73;;
20399;SDS011;10359;53.596;22.520;2023-09-12T12:56:55;11.95;;;9.95;;
20399;SDS011;10359;53.596;22.520;2023-09-12T13:03:25;10.70;;;9.25;;
20399;SDS011;10359;53.596;22.520;2023-09-12T13:10:13;10.45;;;9.35;;
20399;SDS011;10359;53.596;22.520;2023-09-12T13:16:54;10.85;;;9.70;;
20399;SDS011;10359;53.596;22.520;2023-09-12T13:23:42;10.75;;;9.75;;
20399;SDS011;10359;53.596;22.520;2023-09-12T13:30:28;10.40;;;9.40;;
20399;SDS011;10359;53.596;22.520;2023-09-12T13:37:09;10.65;;;9.65;;
20399;SDS011;10359;53.596;22.520;2023-09-12T13:43:50;11.05;;;9.93;;
20399;SDS011;10359;53.596;22.520;2023-09-12T13:50:30;10.95;;;9.95;;
20399;SDS011;10359;53.596;22.520;2023-09-12T13:57:18;10.70;;;9.48;;
20399;SDS011;10359;53.596;22.520;2023-09-12T14:11:49;11.13;;;8.88;;
20399;SDS011;10359;53.596;22.520;2023-09-12T14:18:40;9.82;;;8.93;;
20399;SDS011;10359;53.596;22.520;2023-09-12T14:25:21;10.40;;;9.40;;
20399;SDS011;10359;53.596;22.520;2023-09-12T14:32:09;11.40;;;9.52;;
20399;SDS011;10359;53.596;22.520;2023-09-12T14:38:58;11.40;;;9.90;;
20399;SDS011;10359;53.596;22.520;2023-09-12T14:45:54;9.98;;;9.05;;
20399;SDS011;10359;53.596;22.520;2023-09-12T14:52:43;14.52;;;9.75;;
20399;SDS011;10359;53.596;22.520;2023-09-12T14:59:19;10.73;;;9.80;;
20399;SDS011;10359;53.596;22.520;2023-09-12T15:06:24;10.80;;;9.70;;
20399;SDS011;10359;53.596;22.520;2023-09-12T15:13:12;12.27;;;9.68;;
20399;SDS011;10359;53.596;22.520;2023-09-12T15:20:00;10.82;;;9.82;;
20399;SDS011;10359;53.596;22.520;2023-09-12T15:37:47;11.50;;;10.32;;
20399;SDS011;10359;53.596;22.520;2023-09-12T15:52:27;14.05;;;10.60;;
20399;SDS011;10359;53.596;22.520;2023-09-12T15:59:16;11.13;;;9.90;;
20399;SDS011;10359;53.596;22.520;2023-09-12T16:06:14;14.95;;;10.45;;
20399;SDS011;10359;53.596;22.520;2023-09-12T16:13:02;11.65;;;10.55;;
20399;SDS011;10359;53.596;22.520;2023-09-12T16:19:59;11.13;;;10.10;;
20399;SDS011;10359;53.596;22.520;2023-09-12T16:26:48;12.23;;;10.85;;
20399;SDS011;10359;53.596;22.520;2023-09-12T16:33:33;11.43;;;10.30;;
20399;SDS011;10359;53.596;22.520;2023-09-12T16:40:26;12.20;;;11.00;;
20399;SDS011;10359;53.596;22.520;2023-09-12T16:47:16;13.18;;;11.40;;
20399;SDS011;10359;53.596;22.520;2023-09-12T16:54:03;12.47;;;11.37;;
20399;SDS011;10359;53.596;22.520;2023-09-12T16:56:55;12.45;;;11.35;;
20399;SDS011;10359;53.596;22.520;2023-09-12T17:00:05;13.57;;;12.03;;
20399;SDS011;10359;53.596;22.520;2023-09-12T17:06:47;14.10;;;12.70;;
20399;SDS011;10359;53.596;22.520;2023-09-12T17:13:47;13.17;;;11.87;;
20399;SDS011;10359;53.596;22.520;2023-09-12T17:20:34;14.30;;;13.00;;
20399;SDS011;10359;53.596;22.520;2023-09-12T17:27:22;15.00;;;13.40;;
20399;SDS011;10359;53.596;22.520;2023-09-12T17:34:15;15.93;;;14.33;;
20399;SDS011;10359;53.596;22.520;2023-09-12T17:40:57;15.67;;;14.10;;
20399;SDS011;10359;53.596;22.520;2023-09-12T17:47:45;16.87;;;15.03;;
20399;SDS011;10359;53.596;22.520;2023-09-12T17:54:30;15.50;;;14.03;;
20399;SDS011;10359;53.596;22.520;2023-09-12T17:57:22;16.10;;;14.53;;
20399;SDS011;10359;53.596;22.520;2023-09-12T18:03:58;17.17;;;14.07;;
20399;SDS011;10359;53.596;22.520;2023-09-12T18:07:02;14.73;;;13.43;;
20399;SDS011;10359;53.596;22.520;2023-09-12T18:17:02;15.93;;;14.53;;
20399;SDS011;10359;53.596;22.520;2023-09-12T18:23:44;15.60;;;14.00;;
20399;SDS011;10359;53.596;22.520;2023-09-12T18:30:35;16.73;;;15.13;;
20399;SDS011;10359;53.596;22.520;2023-09-12T18:37:26;17.17;;;15.37;;
20399;SDS011;10359;53.596;22.520;2023-09-12T18:44:09;17.70;;;15.87;;
20399;SDS011;10359;53.596;22.520;2023-09-12T18:50:59;17.27;;;15.47;;
20399;SDS011;10359;53.596;22.520;2023-09-12T18:57:58;17.43;;;15.73;;
20399;SDS011;10359;53.596;22.520;2023-09-12T19:04:54;17.37;;;15.70;;
20399;SDS011;10359;53.596;22.520;2023-09-12T19:11:49;18.70;;;16.70;;
20399;SDS011;10359;53.596;22.520;2023-09-12T19:18:39;18.87;;;16.57;;
20399;SDS011;10359;53.596;22.520;2023-09-12T19:25:32;17.37;;;15.87;;
20399;SDS011;10359;53.596;22.520;2023-09-12T19:32:18;19.33;;;15.80;;
20399;SDS011;10359;53.596;22.520;2023-09-12T19:39:04;16.50;;;14.83;;
20399;SDS011;10359;53.596;22.520;2023-09-12T19:52:49;17.33;;;15.60;;
20399;SDS011;10359;53.596;22.520;2023-09-12T20:07:20;16.93;;;15.33;;
20399;SDS011;10359;53.596;22.520;2023-09-12T20:21:48;18.87;;;16.90;;
20399;SDS011;10359;53.596;22.520;2023-09-12T20:28:28;17.97;;;16.17;;
20399;SDS011;10359;53.596;22.520;2023-09-12T20:39:37;17.43;;;15.73;;
20399;SDS011;10359;53.596;22.520;2023-09-12T20:46:35;16.83;;;15.20;;
20399;SDS011;10359;53.596;22.520;2023-09-12T20:53:25;17.50;;;15.70;;
20399;SDS011;10359;53.596;22.520;2023-09-12T21:00:08;16.97;;;15.17;;
20399;SDS011;10359;53.596;22.520;2023-09-12T21:07:04;17.83;;;16.03;;
20399;SDS011;10359;53.596;22.520;2023-09-12T21:13:53;16.60;;;14.30;;
20399;SDS011;10359;53.596;22.520;2023-09-12T21:20:41;18.37;;;16.57;;
20399;SDS011;10359;53.596;22.520;2023-09-12T21:27:25;17.50;;;15.60;;
20399;SDS011;10359;53.596;22.520;2023-09-12T21:44:41;18.57;;;16.67;;
20399;SDS011;10359;53.596;22.520;2023-09-12T21:51:27;17.87;;;15.93;;
20399;SDS011;10359;53.596;22.520;2023-09-12T21:58:07;20.87;;;18.73;;
20399;SDS011;10359;53.596;22.520;2023-09-12T22:04:36;18.23;;;16.40;;
20399;SDS011;10359;53.596;22.520;2023-09-12T22:11:16;19.50;;;17.43;;
20399;SDS011;10359;53.596;22.520;2023-09-12T22:17:58;22.33;;;17.67;;
20399;SDS011;10359;53.596;22.520;2023-09-12T22:24:44;18.53;;;16.63;;
20399;SDS011;10359;53.596;22.520;2023-09-12T22:31:30;20.67;;;18.57;;
20399;SDS011;10359;53.596;22.520;2023-09-12T22:38:12;19.73;;;17.83;;
20399;SDS011;10359;53.596;22.520;2023-09-12T22:44:52;20.20;;;18.30;;
20399;SDS011;10359;53.596;22.520;2023-09-12T22:51:32;21.10;;;18.90;;
20399;SDS011;10359;53.596;22.520;2023-09-12T22:58:08;21.90;;;19.27;;
20399;SDS011;10359;53.596;22.520;2023-09-12T23:04:41;24.20;;;20.30;;
20399;SDS011;10359;53.596;22.520;2023-09-12T23:18:26;26.23;;;22.83;;
20399;SDS011;10359;53.596;22.520;2023-09-12T23:25:23;25.63;;;21.93;;
20399;SDS011;10359;53.596;22.520;2023-09-12T23:32:09;24.03;;;20.77;;
20399;SDS011;10359;53.596;22.520;2023-09-12T23:38:51;25.73;;;21.27;;
20399;SDS011;10359;53.596;22.520;2023-09-12T23:45:36;20.90;;;18.67;;
20399;SDS011;10359;53.596;22.520;2023-09-12T23:52:22;24.47;;;21.87;;
20399;SDS011;10359;53.596;22.520;2023-09-12T23:59:11;22.27;;;19.67;;
